Time;durP1;ratioP1;P1;durP2;ratioP2;P2;SDS_P1;SDS_P2;PMS_P1;PMS_P2;Temp;Humidity;BMP_temperature;BMP_pressure;BME280_temperature;BME280_humidity;BME280_pressure;Samples;Min_cycle;Max_cycle;Signal;HPM_P1;HPM_P2
2022/07/27 00:02:00;;;;;;;12.93;11.73;;;;;;;22.39;49.93;94395.53;5128983;27;20031;-74
2022/07/27 00:04:26;;;;;;;12.82;11.63;;;;;;;22.46;50.17;94403.44;5127584;27;20029;-74
2022/07/27 00:06:51;;;;;;;13.55;12.25;;;;;;;22.39;49.97;94394.72;5113252;27;20417;-74
2022/07/27 00:09:18;;;;;;;12.75;11.55;;;;;;;22.30;50.30;94389.66;5116137;27;20031;-74
2022/07/27 00:11:44;;;;;;;12.18;11.07;;;;;;;22.27;50.81;94399.84;5110564;28;20055;-74
2022/07/27 00:14:10;;;;;;;13.43;12.13;;;;;;;22.19;51.19;94400.09;5129082;27;20538;-74
2022/07/27 00:16:35;;;;;;;13.68;12.27;;;;;;;22.12;51.35;94404.53;5099570;27;20031;-74
2022/07/27 00:19:01;;;;;;;13.57;12.18;;;;;;;22.08;51.32;94402.31;5129267;27;20410;-74
2022/07/27 00:21:26;;;;;;;12.88;11.68;;;;;;;22.05;51.84;94394.00;5119211;27;20039;-74
2022/07/27 00:23:53;;;;;;;14.00;12.70;;;;;;;22.01;52.02;94390.16;5087595;28;20027;-74
2022/07/27 00:26:18;;;;;;;13.93;12.52;;;;;;;22.04;51.98;94403.75;5099238;27;20031;-74
2022/07/27 00:28:44;;;;;;;13.23;11.80;;;;;;;21.93;52.16;94395.66;5128889;27;20069;-74
2022/07/27 00:31:09;;;;;;;13.52;12.32;;;;;;;21.86;52.30;94390.38;5121865;27;20035;-74
2022/07/27 00:33:34;;;;;;;12.88;11.57;;;;;;;21.78;52.72;94399.31;5111364;27;20031;-74
2022/07/27 00:36:01;;;;;;;13.60;12.30;;;;;;;21.77;52.74;94396.91;5102766;28;20039;-74
2022/07/27 00:38:27;;;;;;;12.95;11.75;;;;;;;21.66;53.36;94394.88;5116168;27;20032;-74
2022/07/27 00:40:52;;;;;;;14.05;12.65;;;;;;;21.72;53.45;94405.44;5121457;27;20049;-74
2022/07/27 00:43:18;;;;;;;14.20;12.73;;;;;;;21.62;53.35;94397.13;5130231;27;20023;-74
2022/07/27 00:45:43;;;;;;;14.27;12.88;;;;;;;21.64;53.92;94414.38;5118407;27;20484;-74
2022/07/27 00:48:09;;;;;;;14.52;13.00;;;;;;;21.61;53.89;94421.91;5130738;27;20505;-74
2022/07/27 00:50:34;;;;;;;14.00;12.60;;;;;;;21.39;53.75;94432.69;5100029;27;20550;-74
2022/07/27 00:53:00;;;;;;;14.43;12.93;;;;;;;21.29;54.43;94437.53;5096414;27;20038;-74
2022/07/27 00:55:26;;;;;;;14.88;13.38;;;;;;;21.32;54.46;94431.03;5097685;28;20276;-74
2022/07/27 00:57:51;;;;;;;13.90;12.60;;;;;;;21.41;54.56;94449.16;5092885;28;20034;-74
2022/07/27 01:00:17;;;;;;;13.70;12.40;;;;;;;21.41;54.75;94445.69;5129725;28;20130;-74
2022/07/27 01:02:42;;;;;;;13.70;12.43;;;;;;;21.46;54.24;94447.75;5111213;28;20039;-74
2022/07/27 01:05:08;;;;;;;13.90;12.52;;;;;;;21.47;53.88;94454.66;5110878;28;20409;-74
2022/07/27 01:07:33;;;;;;;13.23;12.00;;;;;;;21.53;53.96;94448.53;5123986;28;20043;-74
2022/07/27 01:09:59;;;;;;;13.90;12.60;;;;;;;21.48;54.06;94450.97;5111352;28;20554;-74
2022/07/27 01:12:29;;;;;;;14.05;12.57;;;;;;;21.49;53.83;94452.63;5126363;28;20189;-74
2022/07/27 01:14:55;;;;;;;13.93;12.73;;;;;;;21.40;53.89;94446.72;5108232;28;20028;-74
2022/07/27 01:17:21;;;;;;;13.52;12.13;;;;;;;21.38;54.08;94446.09;5110090;28;20035;-74
2022/07/27 01:19:46;;;;;;;14.38;12.98;;;;;;;21.39;53.73;94440.59;5110788;28;20023;-74
2022/07/27 01:22:12;;;;;;;13.18;11.90;;;;;;;21.42;54.05;94437.59;5120540;28;20143;-75
2022/07/27 01:24:38;;;;;;;14.13;12.75;;;;;;;21.40;54.07;94434.31;5116007;28;20110;-74
2022/07/27 01:27:03;;;;;;;14.25;12.85;;;;;;;21.32;54.43;94446.91;5126692;28;20173;-74
2022/07/27 01:29:29;;;;;;;14.00;12.80;;;;;;;21.36;54.03;94443.63;5095709;28;20039;-74
2022/07/27 01:31:55;;;;;;;12.50;11.40;;;;;;;21.33;54.19;94432.66;5127154;28;20020;-74
2022/07/27 01:34:21;;;;;;;13.50;12.30;;;;;;;21.38;54.26;94446.91;5109547;28;20055;-74
2022/07/27 01:36:46;;;;;;;13.70;12.30;;;;;;;21.30;54.55;94441.00;5129804;27;20019;-74
2022/07/27 01:39:12;;;;;;;14.13;12.77;;;;;;;21.28;54.79;94451.75;5110091;28;20036;-74
2022/07/27 01:41:38;;;;;;;13.82;12.63;;;;;;;21.26;54.80;94451.16;5110758;28;20104;-74
2022/07/27 01:44:04;;;;;;;14.07;12.68;;;;;;;21.28;54.91;94445.66;5104234;28;20501;-74
2022/07/27 01:46:29;;;;;;;13.75;12.35;;;;;;;21.27;54.53;94450.13;5117289;27;20386;-74
2022/07/27 01:48:55;;;;;;;14.20;12.90;;;;;;;21.32;54.44;94446.91;5110864;27;20111;-74
2022/07/27 01:51:20;;;;;;;13.77;12.48;;;;;;;21.24;54.52;94439.97;5115908;27;20076;-74
2022/07/27 01:53:45;;;;;;;13.80;12.48;;;;;;;21.28;54.39;94437.72;5098059;27;20085;-74
2022/07/27 01:56:11;;;;;;;13.40;12.18;;;;;;;21.35;54.03;94444.66;5124101;27;20023;-74
2022/07/27 01:58:37;;;;;;;13.60;12.20;;;;;;;21.35;54.18;94447.28;5110517;27;20032;-74
2022/07/27 02:01:03;;;;;;;13.27;12.02;;;;;;;21.26;54.30;94440.59;5130638;27;20099;-74
2022/07/27 02:03:29;;;;;;;13.50;12.18;;;;;;;21.18;54.44;94440.78;5100378;27;20031;-74
2022/07/27 02:05:54;;;;;;;13.30;12.10;;;;;;;21.14;54.33;94436.91;5131926;27;20027;-74
2022/07/27 02:08:20;;;;;;;12.88;11.57;;;;;;;21.19;53.86;94448.47;5132807;27;20105;-74
2022/07/27 02:13:31;;;;;;;12.88;11.48;;;;;;;21.16;53.33;94445.44;5101936;28;20388;-74
2022/07/27 02:15:56;;;;;;;13.23;11.85;;;;;;;21.10;53.53;94447.06;5113648;27;20485;-74
2022/07/27 02:18:22;;;;;;;13.20;11.90;;;;;;;21.04;53.54;94441.78;5114980;27;20417;-74
2022/07/27 02:20:48;;;;;;;12.75;11.52;;;;;;;21.00;53.08;94454.53;5113959;27;20027;-74
2022/07/27 02:23:13;;;;;;;12.95;11.48;;;;;;;20.96;53.59;94464.69;5097591;27;20034;-74
2022/07/27 02:25:39;;;;;;;13.30;12.10;;;;;;;21.04;53.51;94465.53;5127774;27;20023;-74
2022/07/27 02:28:05;;;;;;;12.30;11.00;;;;;;;21.04;53.67;94474.28;5109713;27;20042;-74
2022/07/27 02:30:31;;;;;;;12.88;11.63;;;;;;;20.84;54.00;94471.59;5112903;27;20028;-74
2022/07/27 02:32:56;;;;;;;12.27;11.18;;;;;;;20.82;53.35;94464.88;5128165;27;20027;-74
2022/07/27 02:35:22;;;;;;;12.23;11.05;;;;;;;20.76;53.54;94469.13;5082163;28;20032;-74
2022/07/27 02:37:47;;;;;;;12.68;10.85;;;;;;;20.86;53.25;94469.53;5097520;27;20461;-74
2022/07/27 02:40:15;;;;;;;12.73;11.52;;;;;;;20.74;54.46;94468.50;5131736;27;20045;-74
2022/07/27 02:42:41;;;;;;;13.10;11.82;;;;;;;20.70;55.02;94480.47;5131090;27;20035;-75
2022/07/27 02:45:07;;;;;;;12.68;11.48;;;;;;;20.55;55.19;94471.88;5099891;28;20084;-74
2022/07/27 02:47:33;;;;;;;12.23;11.02;;;;;;;20.42;54.97;94460.22;5113350;27;20757;-74
2022/07/27 02:50:00;;;;;;;11.88;10.77;;;;;;;20.65;54.83;94473.13;5113157;27;20035;-74
2022/07/27 02:52:25;;;;;;;12.48;11.27;;;;;;;20.53;55.68;94480.81;5121130;27;20027;-74
2022/07/27 02:54:51;;;;;;;12.80;11.60;;;;;;;20.43;55.27;94463.69;5109970;28;20148;-74
2022/07/27 02:57:16;;;;;;;12.90;11.70;;;;;;;20.48;55.37;94471.81;5112472;28;20046;-74
2022/07/27 02:59:42;;;;;;;12.77;11.57;;;;;;;20.35;55.88;94475.19;5124328;27;20402;-74
2022/07/27 03:02:07;;;;;;;13.10;11.63;;;;;;;20.20;56.38;94485.06;5112251;28;20516;-74
2022/07/27 03:04:33;;;;;;;13.00;11.75;;;;;;;20.25;56.29;94485.28;5118291;27;20544;-74
2022/07/27 03:06:58;;;;;;;13.18;11.25;;;;;;;20.23;56.85;94489.94;5095721;28;20112;-74
2022/07/27 03:09:24;;;;;;;12.77;10.95;;;;;;;20.00;57.35;94482.28;5127827;27;20039;-74
2022/07/27 03:11:49;;;;;;;11.88;10.68;;;;;;;20.00;56.21;94493.66;5098896;27;20027;-74
2022/07/27 03:14:15;;;;;;;12.80;11.48;;;;;;;20.03;57.26;94495.91;5118202;27;20035;-74
2022/07/27 03:16:40;;;;;;;12.65;10.75;;;;;;;19.94;57.19;94488.34;5133767;27;20043;-74
2022/07/27 03:19:05;;;;;;;12.05;10.82;;;;;;;19.91;56.96;94497.44;5114450;27;20043;-74
2022/07/27 03:21:31;;;;;;;12.20;10.95;;;;;;;19.89;56.97;94494.16;5116195;27;20028;-74
2022/07/27 03:23:56;;;;;;;12.50;11.20;;;;;;;19.89;57.78;94498.63;5113829;27;20039;-74
2022/07/27 03:26:22;;;;;;;11.55;10.50;;;;;;;19.90;57.14;94501.09;5115692;27;20030;-73
2022/07/27 03:28:47;;;;;;;14.82;10.60;;;;;;;19.62;57.04;94504.50;5129388;27;20489;-74
2022/07/27 03:31:13;;;;;;;12.25;10.98;;;;;;;19.61;57.36;94497.59;5118086;27;20015;-74
2022/07/27 03:33:38;;;;;;;11.45;10.23;;;;;;;19.62;57.87;94501.03;5105812;28;20108;-74
2022/07/27 03:36:04;;;;;;;11.82;10.73;;;;;;;19.50;58.22;94490.22;5110392;27;20465;-74
2022/07/27 03:38:29;;;;;;;11.43;10.32;;;;;;;19.48;58.20;94508.03;5128196;27;20039;-74
2022/07/27 03:40:55;;;;;;;11.32;10.23;;;;;;;19.49;58.35;94500.94;5112106;27;20035;-73
2022/07/27 03:43:20;;;;;;;12.35;10.35;;;;;;;19.47;58.09;94500.28;5104637;28;20085;-74
2022/07/27 03:45:46;;;;;;;10.82;9.73;;;;;;;19.58;58.13;94497.94;5121996;27;20031;-74
2022/07/27 03:48:11;;;;;;;11.15;9.98;;;;;;;19.70;58.35;94498.31;5120742;27;20515;-74
2022/07/27 03:50:36;;;;;;;10.63;9.63;;;;;;;19.66;58.40;94494.41;5129642;27;20039;-74
2022/07/27 03:53:02;;;;;;;10.80;9.73;;;;;;;19.78;57.56;94499.97;5111570;27;20441;-74
2022/07/27 03:55:28;;;;;;;12.45;10.27;;;;;;;19.86;56.42;94498.03;5093360;28;20126;-74
2022/07/27 03:57:53;;;;;;;10.93;9.82;;;;;;;19.94;54.99;94490.97;5110997;28;20028;-73
2022/07/27 04:00:19;;;;;;;11.82;10.52;;;;;;;20.12;55.63;94509.75;5097625;28;20042;-74
2022/07/27 04:02:44;;;;;;;11.48;9.38;;;;;;;20.23;54.17;94501.31;5093865;28;20040;-73
2022/07/27 04:05:10;;;;;;;10.57;9.48;;;;;;;20.34;53.73;94496.47;5118859;27;20545;-73
2022/07/27 04:07:35;;;;;;;10.77;9.68;;;;;;;20.46;53.03;94498.38;5102404;28;20118;-74
2022/07/27 04:10:01;;;;;;;10.40;9.40;;;;;;;20.61;52.60;94494.81;5110787;27;20035;-73
2022/07/27 04:12:26;;;;;;;9.75;8.75;;;;;;;20.76;53.18;94492.88;5112321;28;20081;-73
2022/07/27 04:14:52;;;;;;;10.52;9.52;;;;;;;20.88;51.86;94493.09;5111942;27;20050;-73
2022/07/27 04:17:18;;;;;;;9.98;9.02;;;;;;;21.35;50.96;94491.41;5114791;27;20092;-73
2022/07/27 04:19:43;;;;;;;9.90;9.00;;;;;;;22.20;48.44;94491.63;5112671;27;20497;-73
2022/07/27 04:22:09;;;;;;;9.93;9.00;;;;;;;24.63;42.69;94495.88;5088014;28;20038;-73
2022/07/27 04:24:34;;;;;;;9.80;8.90;;;;;;;26.46;39.24;94494.41;5122232;27;20492;-73
2022/07/27 04:26:59;;;;;;;10.25;9.25;;;;;;;27.95;36.67;94502.63;5118387;27;20436;-74
2022/07/27 04:29:25;;;;;;;9.43;8.52;;;;;;;28.84;34.17;94502.59;5138534;27;20035;-74
2022/07/27 04:31:50;;;;;;;9.45;8.57;;;;;;;29.60;32.66;94507.19;5131055;27;20031;-74
2022/07/27 04:34:16;;;;;;;9.65;8.75;;;;;;;30.58;31.72;94504.25;5141185;27;20027;-74
2022/07/27 04:36:41;;;;;;;10.98;8.65;;;;;;;31.12;32.34;94497.81;5153011;27;20030;-73
2022/07/27 04:39:07;;;;;;;12.07;8.77;;;;;;;31.81;30.61;94508.19;5134142;27;20037;-74
2022/07/27 04:41:32;;;;;;;10.20;8.80;;;;;;;32.16;29.33;94512.03;5152626;27;20485;-74
2022/07/27 04:43:58;;;;;;;11.88;9.68;;;;;;;32.51;29.46;94517.66;5112519;27;20058;-74
2022/07/27 04:46:23;;;;;;;17.92;10.75;;;;;;;33.08;28.70;94530.72;5123452;27;20258;-74
2022/07/27 04:48:49;;;;;;;15.43;10.68;;;;;;;33.10;28.16;94536.63;5152540;27;20462;-74
2022/07/27 04:51:14;;;;;;;14.45;10.77;;;;;;;33.20;28.07;94535.75;5151593;27;20038;-74
2022/07/27 04:53:40;;;;;;;20.35;12.27;;;;;;;33.15;28.14;94539.31;5120234;27;20031;-74
2022/07/27 04:56:07;;;;;;;20.23;12.15;;;;;;;32.85;28.37;94529.41;5111778;27;20076;-74
2022/07/27 04:58:32;;;;;;;18.90;11.95;;;;;;;32.84;28.76;94538.53;5100408;28;20036;-74
2022/07/27 05:00:57;;;;;;;16.75;12.60;;;;;;;31.95;29.91;94537.25;5119823;28;20509;-74
2022/07/27 05:03:23;;;;;;;16.45;12.68;;;;;;;30.71;32.05;94540.53;5113009;28;20420;-74
2022/07/27 05:05:48;;;;;;;15.02;12.80;;;;;;;29.61;34.28;94540.91;5113416;28;20101;-74
2022/07/27 05:08:14;;;;;;;15.85;12.50;;;;;;;28.93;35.25;94541.19;5130551;28;20034;-74
2022/07/27 05:10:39;;;;;;;14.98;12.20;;;;;;;28.49;36.39;94545.66;5115951;27;20028;-74
2022/07/27 05:13:05;;;;;;;17.52;12.63;;;;;;;27.81;38.46;94555.50;5126073;27;20039;-74
2022/07/27 05:15:30;;;;;;;15.05;12.95;;;;;;;27.22;39.40;94545.06;5130077;28;20031;-73
2022/07/27 05:17:55;;;;;;;16.25;12.93;;;;;;;27.01;40.08;94554.47;5126433;27;20023;-73
2022/07/27 05:20:21;;;;;;;22.20;12.98;;;;;;;27.02;39.99;94550.75;5112966;28;20027;-74
2022/07/27 05:22:46;;;;;;;16.45;14.02;;;;;;;26.75;40.67;94555.78;5097118;28;20084;-74
2022/07/27 05:25:12;;;;;;;16.83;13.93;;;;;;;26.59;40.98;94554.66;5115112;28;20035;-74
2022/07/27 05:27:37;;;;;;;15.32;13.07;;;;;;;26.67;41.14;94548.97;5115086;28;20251;-74
2022/07/27 05:30:04;;;;;;;18.27;13.30;;;;;;;26.59;41.52;94557.31;5113792;28;20482;-74
2022/07/27 05:32:30;;;;;;;15.52;13.60;;;;;;;26.55;42.04;94560.66;5114600;27;20035;-74
2022/07/27 05:34:55;;;;;;;18.95;13.13;;;;;;;26.66;41.56;94558.00;5140100;27;20034;-74
2022/07/27 05:37:20;;;;;;;15.63;13.68;;;;;;;26.76;40.97;94562.72;5135458;27;20031;-74
2022/07/27 05:39:46;;;;;;;17.05;13.00;;;;;;;26.74;40.96;94555.00;5123307;27;20035;-74
2022/07/27 05:42:11;;;;;;;16.48;13.52;;;;;;;26.37;42.72;94554.38;5132638;27;20025;-74
2022/07/27 05:44:37;;;;;;;16.63;11.40;;;;;;;26.57;41.29;94554.06;5108264;27;20152;-72
2022/07/27 05:47:03;;;;;;;16.92;12.27;;;;;;;26.60;41.86;94547.47;5123639;27;20039;-74
2022/07/27 05:49:28;;;;;;;15.82;12.20;;;;;;;26.85;41.31;94549.84;5122390;27;20035;-73
2022/07/27 05:51:53;;;;;;;16.27;11.88;;;;;;;26.84;41.31;94554.38;5120533;27;20031;-73
2022/07/27 05:54:19;;;;;;;21.60;11.80;;;;;;;26.85;41.13;94558.66;5123192;27;20034;-73
2022/07/27 05:56:44;;;;;;;13.65;11.18;;;;;;;26.68;41.31;94561.22;5121300;27;20024;-74
2022/07/27 05:59:10;;;;;;;11.82;10.63;;;;;;;26.64;40.60;94552.09;5122035;27;20497;-73
2022/07/27 06:01:36;;;;;;;14.07;10.93;;;;;;;26.68;41.27;94555.91;5102648;28;20027;-73
2022/07/27 06:04:02;;;;;;;13.88;11.30;;;;;;;26.71;41.52;94552.75;5115729;27;20059;-73
2022/07/27 06:09:12;;;;;;;15.20;11.20;;;;;;;26.71;41.12;94555.44;5113524;28;20042;-73
2022/07/27 06:11:37;;;;;;;12.57;10.45;;;;;;;26.80;40.90;94553.25;5106256;27;20043;-73
2022/07/27 06:14:03;;;;;;;19.52;9.05;;;;;;;26.83;40.30;94555.44;5114153;28;20031;-74
2022/07/27 06:16:28;;;;;;;18.40;9.05;;;;;;;26.91;41.32;94565.75;5110830;27;20510;-73
2022/07/27 06:18:53;;;;;;;14.65;8.98;;;;;;;26.94;40.83;94559.94;5128693;27;20035;-73
2022/07/27 06:21:19;;;;;;;11.05;9.18;;;;;;;27.10;39.94;94558.38;5114012;27;20031;-73
2022/07/27 06:23:47;;;;;;;15.82;9.20;;;;;;;27.15;40.30;94555.81;5114509;28;20477;-73
2022/07/27 06:26:12;;;;;;;10.68;9.40;;;;;;;27.30;40.22;94557.19;5113790;27;20027;-73
2022/07/27 06:28:38;;;;;;;11.63;9.13;;;;;;;27.50;39.62;94562.13;5096807;27;20035;-73
2022/07/27 06:31:03;;;;;;;14.88;9.15;;;;;;;27.65;39.33;94561.59;5127605;27;20027;-73
2022/07/27 06:33:30;;;;;;;17.33;9.55;;;;;;;27.50;39.80;94559.47;5128680;27;20031;-74
2022/07/27 06:35:57;;;;;;;15.15;9.27;;;;;;;27.55;39.42;94551.53;5132426;27;20058;-74
2022/07/27 06:38:23;;;;;;;14.13;9.40;;;;;;;27.60;39.67;94552.44;5113295;27;20034;-73
2022/07/27 06:40:51;;;;;;;11.23;8.98;;;;;;;27.78;39.30;94559.44;5115874;27;20027;-73
2022/07/27 06:43:20;;;;;;;12.82;8.77;;;;;;;27.89;38.84;94555.13;5102824;27;20114;-75
2022/07/27 06:45:46;;;;;;;10.93;8.77;;;;;;;27.98;39.41;94564.34;5108404;27;20027;-74
2022/07/27 06:48:12;;;;;;;31.63;9.80;;;;;;;28.07;38.59;94556.75;5113415;28;20058;-75
2022/07/27 06:50:37;;;;;;;12.68;8.63;;;;;;;28.14;38.84;94554.72;5114819;27;20106;-73
2022/07/27 06:53:03;;;;;;;13.48;9.63;;;;;;;28.16;38.59;94549.94;5115742;27;20076;-83
2022/07/27 06:55:29;;;;;;;19.88;9.55;;;;;;;28.12;39.10;94558.69;5128875;27;20034;-83
2022/07/27 06:57:55;;;;;;;17.42;9.73;;;;;;;28.33;38.66;94554.47;5129321;27;20074;-76
2022/07/27 07:00:20;;;;;;;17.15;9.43;;;;;;;28.26;38.67;94554.63;5134838;27;20420;-78
2022/07/27 07:02:53;;;;;;;17.45;9.63;;;;;;;28.36;38.42;94537.94;5137909;27;20065;-76
2022/07/27 07:05:19;;;;;;;15.25;10.07;;;;;;;28.46;38.53;94536.28;5128994;27;20138;-76
2022/07/27 07:07:44;;;;;;;12.77;9.25;;;;;;;28.69;38.31;94545.13;5117344;27;20133;-76
2022/07/27 07:10:10;;;;;;;12.93;9.15;;;;;;;28.78;38.03;94540.19;5129608;27;20043;-76
2022/07/27 07:12:35;;;;;;;20.98;10.32;;;;;;;28.74;37.74;94527.31;5101809;27;20035;-75
2022/07/27 07:15:00;;;;;;;14.90;10.50;;;;;;;28.78;38.24;94540.19;5123617;27;20042;-75
2022/07/27 07:17:26;;;;;;;15.68;10.40;;;;;;;28.68;38.21;94540.84;5125693;27;20494;-75
2022/07/27 07:19:51;;;;;;;13.25;8.98;;;;;;;28.80;38.39;94536.19;5118286;27;20095;-75
2022/07/27 07:22:17;;;;;;;15.18;9.20;;;;;;;28.63;38.00;94536.25;5112054;27;20039;-75
2022/07/27 07:24:42;;;;;;;20.35;9.18;;;;;;;28.52;38.27;94532.63;5112219;27;20038;-75
2022/07/27 07:27:08;;;;;;;16.48;9.65;;;;;;;28.48;39.54;94536.03;5113056;27;20462;-75
2022/07/27 07:29:33;;;;;;;10.63;9.20;;;;;;;28.69;38.86;94535.25;5130511;27;20447;-75
2022/07/27 07:31:59;;;;;;;15.90;9.73;;;;;;;28.96;38.25;94529.19;5130094;27;20038;-75
2022/07/27 07:34:24;;;;;;;23.38;12.32;;;;;;;29.15;37.87;94540.44;5135852;27;20034;-75
2022/07/27 07:36:50;;;;;;;13.55;9.23;;;;;;;28.94;38.05;94540.13;5091338;27;20030;-75
2022/07/27 07:39:16;;;;;;;13.23;9.60;;;;;;;28.68;38.68;94535.53;5112497;27;20331;-75
2022/07/27 07:41:41;;;;;;;17.25;8.88;;;;;;;28.62;38.01;94536.50;5126353;27;20030;-75
2022/07/27 07:44:08;;;;;;;9.82;8.40;;;;;;;28.77;38.30;94530.56;5127821;27;20043;-75
2022/07/27 07:46:35;;;;;;;11.13;8.07;;;;;;;29.01;38.56;94537.28;5108955;27;20045;-75
2022/07/27 07:49:01;;;;;;;14.50;8.27;;;;;;;29.23;37.42;94534.63;5126778;27;20030;-75
2022/07/27 07:51:26;;;;;;;16.52;8.85;;;;;;;29.36;37.92;94534.25;5120428;27;20421;-75
2022/07/27 07:53:52;;;;;;;14.52;8.45;;;;;;;29.61;37.14;94535.56;5119146;27;20413;-74
2022/07/27 07:56:17;;;;;;;13.38;8.10;;;;;;;29.82;37.13;94533.94;5118167;27;20023;-75
2022/07/27 07:58:43;;;;;;;12.75;8.30;;;;;;;29.96;36.14;94534.31;5117252;27;20390;-75
2022/07/27 08:01:08;;;;;;;8.75;7.53;;;;;;;29.95;35.23;94538.03;5105727;27;20054;-76
2022/07/27 08:03:34;;;;;;;13.10;7.47;;;;;;;29.90;34.33;94536.16;5118972;27;20038;-75
2022/07/27 08:05:59;;;;;;;10.68;7.85;;;;;;;29.97;35.01;94534.06;5131451;27;20018;-75
2022/07/27 08:08:26;;;;;;;10.43;7.57;;;;;;;29.95;35.65;94535.38;5099994;27;20027;-75
2022/07/27 08:10:52;;;;;;;12.57;8.02;;;;;;;30.04;35.36;94525.81;5118047;27;20031;-75
2022/07/27 08:13:17;;;;;;;16.17;8.13;;;;;;;30.08;35.01;94526.91;5101451;27;20500;-75
2022/07/27 08:15:43;;;;;;;13.27;8.13;;;;;;;30.06;35.57;94521.00;5103937;28;20062;-75
2022/07/27 08:18:08;;;;;;;11.70;8.20;;;;;;;30.22;34.62;94519.28;5107177;27;20084;-75
2022/07/27 08:20:34;;;;;;;12.68;8.27;;;;;;;30.11;34.94;94520.25;5120357;27;20058;-75
2022/07/27 08:23:00;;;;;;;10.55;7.90;;;;;;;30.15;34.59;94527.53;5108180;27;20027;-75
2022/07/27 08:25:25;;;;;;;11.10;7.68;;;;;;;30.18;33.77;94527.00;5104140;27;20588;-75
2022/07/27 08:27:51;;;;;;;13.15;7.90;;;;;;;30.26;34.29;94534.59;5087579;27;20464;-76
2022/07/27 08:30:16;;;;;;;14.65;7.82;;;;;;;30.19;32.91;94533.16;5128025;27;20381;-74
2022/07/27 08:32:50;;;;;;;17.10;7.88;;;;;;;30.22;33.64;94528.13;5129026;27;20424;-75
2022/07/27 08:35:17;;;;;;;10.98;7.38;;;;;;;30.22;33.54;94528.13;5111818;27;20521;-75
2022/07/27 08:37:43;;;;;;;9.63;6.65;;;;;;;30.32;32.03;94519.38;5115947;27;20076;-75
2022/07/27 08:40:09;;;;;;;10.57;6.95;;;;;;;30.64;32.32;94516.63;5123441;27;20020;-75
2022/07/27 08:42:34;;;;;;;10.75;7.25;;;;;;;30.73;32.20;94514.28;5110347;27;20027;-75
2022/07/27 08:45:00;;;;;;;11.57;7.43;;;;;;;30.76;31.58;94504.88;5142793;27;20071;-75
2022/07/27 08:47:25;;;;;;;11.07;7.18;;;;;;;30.80;31.13;94514.06;5115482;27;20034;-75
2022/07/27 08:49:51;;;;;;;9.55;7.10;;;;;;;30.78;30.74;94497.38;5109863;28;20414;-74
2022/07/27 08:52:16;;;;;;;9.27;7.60;;;;;;;31.01;30.62;94507.72;5108370;28;20101;-75
2022/07/27 08:54:42;;;;;;;12.05;7.35;;;;;;;31.03;31.28;94496.72;5120352;27;20035;-75
2022/07/27 08:57:07;;;;;;;13.38;7.72;;;;;;;31.17;31.38;94498.69;5130296;27;20045;-75
2022/07/27 08:59:33;;;;;;;13.82;7.20;;;;;;;31.33;30.05;94498.72;5126956;28;20055;-75
2022/07/27 09:01:58;;;;;;;9.73;7.45;;;;;;;31.44;30.83;94505.75;5116029;27;20024;-75
2022/07/27 09:04:24;;;;;;;14.45;7.70;;;;;;;31.44;30.44;94503.06;5109438;28;20031;-75
2022/07/27 09:06:50;;;;;;;17.92;7.82;;;;;;;31.53;30.80;94492.59;5104029;28;20031;-76
2022/07/27 09:09:19;;;;;;;15.75;7.82;;;;;;;31.64;30.49;94499.59;5115498;28;20091;-75
2022/07/27 09:12:05;;;;;;;9.63;7.47;;;;;;;31.64;29.51;94499.59;5108491;28;20031;-75
2022/07/27 09:14:32;;;;;;;8.23;7.20;;;;;;;31.80;29.75;94501.22;5127812;28;20511;-76
2022/07/27 09:16:58;;;;;;;11.18;7.78;;;;;;;31.81;28.13;94488.59;5111722;28;20529;-75
2022/07/27 09:19:23;;;;;;;10.13;7.13;;;;;;;31.74;27.67;94490.78;5119887;27;20104;-79
2022/07/27 09:21:49;;;;;;;10.15;7.95;;;;;;;31.75;29.13;94482.44;5113317;28;20527;-80
2022/07/27 09:24:15;;;;;;;13.30;8.18;;;;;;;31.84;27.13;94485.38;5136683;27;20035;-78
2022/07/27 09:26:40;;;;;;;9.05;8.00;;;;;;;31.66;27.30;94470.63;5140610;27;20039;-78
2022/07/27 09:29:06;;;;;;;11.63;7.75;;;;;;;31.74;28.49;94480.03;5130834;27;20043;-78
2022/07/27 09:31:48;;;;;;;15.00;7.70;;;;;;;31.87;29.28;94490.22;5119114;27;20508;-76
2022/07/27 09:34:27;;;;;;;10.50;7.95;;;;;;;31.95;28.85;94483.53;5127086;27;20110;-76
2022/07/27 09:36:56;;;;;;;13.38;8.18;;;;;;;32.08;28.35;94488.38;5125896;28;20023;-75
2022/07/27 09:39:23;;;;;;;10.20;7.57;;;;;;;32.16;27.41;94481.66;5127038;28;20034;-75
2022/07/27 09:41:50;;;;;;;10.13;8.77;;;;;;;32.34;28.95;94481.09;5128144;28;20031;-75
2022/07/27 09:44:16;;;;;;;9.23;7.95;;;;;;;32.35;27.23;94469.28;5120917;28;20031;-76
2022/07/27 09:46:44;;;;;;;10.90;7.70;;;;;;;32.49;28.06;94478.41;5101013;28;20044;-75
2022/07/27 09:49:26;;;;;;;10.80;8.98;;;;;;;32.56;28.17;94470.06;5114607;28;20034;-75
2022/07/27 09:51:51;;;;;;;8.48;7.45;;;;;;;32.70;26.45;94464.91;5111897;28;20302;-75
2022/07/27 09:54:17;;;;;;;9.35;7.60;;;;;;;32.78;27.27;94464.34;5113899;28;20023;-75
2022/07/27 09:56:42;;;;;;;11.90;7.82;;;;;;;32.86;27.40;94471.84;5128374;28;20554;-75
2022/07/27 09:59:08;;;;;;;8.60;7.65;;;;;;;32.92;28.11;94464.56;5117253;27;20054;-75
2022/07/27 10:01:36;;;;;;;9.25;7.75;;;;;;;32.89;27.37;94467.81;5104104;28;20024;-75
2022/07/27 10:04:06;;;;;;;9.15;7.75;;;;;;;32.81;27.63;94463.78;5094127;28;20031;-75
2022/07/27 10:06:31;;;;;;;9.93;7.40;;;;;;;32.80;26.17;94462.19;5102001;27;20035;-74
2022/07/27 10:08:57;;;;;;;10.35;7.95;;;;;;;32.81;26.40;94457.63;5124251;27;21445;-75
2022/07/27 10:11:23;;;;;;;8.75;7.88;;;;;;;32.79;26.15;94457.91;5131538;27;20015;-75
2022/07/27 10:13:49;;;;;;;12.75;8.07;;;;;;;32.81;26.35;94450.34;5096215;27;20050;-75
2022/07/27 10:16:27;;;;;;;10.25;7.65;;;;;;;32.87;26.73;94449.25;5109363;27;20308;-75
2022/07/27 10:19:05;;;;;;;13.70;7.28;;;;;;;32.94;26.17;94452.47;5097745;27;20123;-75
2022/07/27 10:21:31;;;;;;;13.30;7.93;;;;;;;32.89;26.60;94436.34;5123618;27;20035;-75
2022/07/27 10:24:01;;;;;;;8.52;7.57;;;;;;;33.00;25.74;94457.84;5128105;27;20093;-75
2022/07/27 10:26:34;;;;;;;10.00;7.82;;;;;;;32.87;26.33;94441.19;5118654;27;20063;-74
2022/07/27 10:29:02;;;;;;;13.25;7.75;;;;;;;32.89;25.72;94452.47;5113948;27;20071;-74
2022/07/27 10:31:36;;;;;;;9.88;7.38;;;;;;;32.82;25.20;94449.28;5127681;27;20119;-75
2022/07/27 10:34:04;;;;;;;11.77;8.45;;;;;;;32.81;26.02;94434.22;5123064;27;20481;-74
2022/07/27 10:36:29;;;;;;;9.48;7.68;;;;;;;32.99;27.09;94445.44;5112424;27;20039;-75
2022/07/27 10:38:55;;;;;;;9.35;7.53;;;;;;;33.08;26.85;94438.44;5130487;27;20528;-75
2022/07/27 10:41:25;;;;;;;13.00;8.32;;;;;;;33.17;26.50;94442.16;5116504;27;20096;-75
2022/07/27 10:44:26;;;;;;;9.43;7.65;;;;;;;33.27;26.80;94439.41;5095054;28;20504;-75
2022/07/27 10:47:02;;;;;;;10.40;8.20;;;;;;;33.21;24.89;94442.41;5067679;27;20088;-74
2022/07/27 10:49:34;;;;;;;8.52;7.60;;;;;;;33.11;25.09;94430.63;5116467;27;20029;-75
2022/07/27 10:52:00;;;;;;;11.00;8.15;;;;;;;33.20;24.59;94430.84;5102552;27;20046;-75
2022/07/27 10:54:31;;;;;;;9.45;8.13;;;;;;;33.08;24.70;94431.16;5094841;27;20421;-75
2022/07/27 10:56:57;;;;;;;8.80;8.00;;;;;;;33.04;24.76;94429.31;5114868;27;20386;-74
2022/07/27 10:59:38;;;;;;;9.68;7.93;;;;;;;32.99;26.24;94416.69;5109435;27;20059;-75
2022/07/27 11:02:08;;;;;;;11.82;7.97;;;;;;;33.19;25.90;94420.38;5113709;27;20019;-75
2022/07/27 11:04:33;;;;;;;;;;;;;;;33.25;25.38;94419.25;5116076;27;20039;-75
2022/07/27 11:06:59;;;;;;;9.48;8.20;;;;;;;33.36;25.81;94408.13;5130854;27;20409;-74
2022/07/27 11:09:38;;;;;;;12.65;8.23;;;;;;;33.42;24.94;94413.47;5094331;27;20028;-75
2022/07/27 11:12:04;;;;;;;12.57;8.15;;;;;;;33.42;24.15;94408.09;5115327;27;20027;-75
2022/07/27 11:14:30;;;;;;;8.52;7.63;;;;;;;33.29;24.32;94414.91;5110673;27;20122;-75
2022/07/27 11:16:56;;;;;;;9.43;7.82;;;;;;;33.34;25.44;94406.78;5087173;28;20035;-75
2022/07/27 11:19:22;;;;;;;10.30;8.40;;;;;;;33.32;25.24;94396.34;5083082;27;20080;-75
2022/07/27 11:21:48;;;;;;;10.88;8.48;;;;;;;33.33;24.64;94407.91;5103154;28;20039;-75
2022/07/27 11:24:16;;;;;;;10.05;8.50;;;;;;;33.30;24.92;94395.00;5094498;28;20035;-75